Time;durP1;ratioP1;P1;durP2;ratioP2;P2;SDS_P1;SDS_P2;PMS_P1;PMS_P2;Temp;Humidity;BMP_temperature;BMP_pressure;BME280_temperature;BME280_humidity;BME280_pressure;Samples;Min_cycle;Max_cycle;Signal;HPM_P1;HPM_P2
2024/03/10 00:00:29;;;;;;;;;;;;;;;9.51;59.78;96241.81;5088902;28;19973;-61
2024/03/10 00:02:57;;;;;;;;;;;;;;;9.35;60.26;96239.06;5089659;28;19931;-62
2024/03/10 00:05:25;;;;;;;;;;;;;;;9.31;60.40;96243.56;5092085;28;20157;-62
2024/03/10 00:07:53;;;;;;;;;;;;;;;9.27;60.67;96239.97;5093589;28;19974;-66
2024/03/10 00:10:21;;;;;;;;;;;;;;;9.28;60.38;96234.22;5084638;28;20016;-62
2024/03/10 00:12:50;;;;;;;;;;;;;;;9.40;60.10;96230.69;5088842;28;20057;-60
2024/03/10 00:15:19;;;;;;;;;;;;;;;9.21;60.76;96227.78;5081112;28;19940;-63
2024/03/10 00:17:47;;;;;;;;;;;;;;;9.04;61.43;96223.44;5090165;28;20180;-62
2024/03/10 00:20:15;;;;;;;;;;;;;;;9.12;61.20;96223.31;5085944;28;20516;-62
2024/03/10 00:22:43;;;;;;;;;;;;;;;8.99;61.60;96220.97;5085716;28;20035;-64
2024/03/10 00:25:15;;;;;;;;;;;;;;;9.04;61.33;96223.44;5093743;28;20028;-67
2024/03/10 00:27:43;;;;;;;;;;;;;;;9.17;61.11;96223.06;5092733;28;19924;-67
2024/03/10 00:30:12;;;;;;;;;;;;;;;9.05;61.64;96227.72;5086025;28;19924;-60
2024/03/10 00:32:41;;;;;;;;;;;;;;;9.08;61.14;96230.53;5070615;28;20369;-60
2024/03/10 00:35:09;;;;;;;;;;;;;;;9.11;61.19;96223.66;5106767;27;19928;-63
2024/03/10 00:37:38;;;;;;;;;;;;;;;9.03;61.38;96221.88;5076439;28;19924;-61
2024/03/10 00:40:07;;;;;;;;;;;;;;;9.08;61.25;96224.34;5086993;28;19956;-62
2024/03/10 00:42:36;;;;;;;;;;;;;;;9.02;61.33;96215.66;5090413;28;19928;-66
2024/03/10 00:45:06;;;;;;;;;;;;;;;9.02;61.55;96212.16;5088894;28;19923;-61
2024/03/10 00:47:37;;;;;;;;;;;;;;;9.05;61.43;96216.88;5104963;28;20015;-60
2024/03/10 00:50:05;;;;;;;;;;;;;;;8.86;61.98;96218.28;5102207;28;19928;-65
2024/03/10 00:52:33;;;;;;;;;;;;;;;8.93;61.97;96218.50;5092897;28;20392;-61
2024/03/10 00:55:01;;;;;;;;;;;;;;;8.77;62.12;96209.50;5096242;28;19928;-65
2024/03/10 00:57:32;;;;;;;;;;;;;;;8.90;61.84;96219.19;5098905;28;19967;-62
2024/03/10 01:00:00;;;;;;;;;;;;;;;8.87;61.93;96217.16;5090710;28;19943;-61
2024/03/10 01:02:27;;;;;;;;;;;;;;;8.87;62.05;96214.44;5079479;28;20545;-61
2024/03/10 01:04:57;;;;;;;;;;;;;;;8.76;62.80;96213.34;5092539;28;20435;-61
2024/03/10 01:07:25;;;;;;;;;;;;;;;8.82;62.38;96211.19;5084943;28;20122;-63
2024/03/10 01:09:53;;;;;;;;;;;;;;;8.80;62.46;96210.75;5089295;28;19939;-64
2024/03/10 01:12:22;;;;;;;;;;;;;;;8.85;62.21;96210.50;5090092;28;19933;-60
2024/03/10 01:14:49;;;;;;;;;;;;;;;8.79;62.62;96204.53;5088426;28;19928;-61
2024/03/10 01:17:18;;;;;;;;;;;;;;;8.68;62.68;96205.31;5091116;28;19927;-60
2024/03/10 01:19:46;;;;;;;;;;;;;;;8.71;62.42;96197.31;5085553;28;19981;-60
2024/03/10 01:22:17;;;;;;;;;;;;;;;8.64;62.74;96205.25;5092733;28;19928;-60
2024/03/10 01:24:45;;;;;;;;;;;;;;;8.67;62.58;96204.53;5095091;28;19970;-60
2024/03/10 01:27:13;;;;;;;;;;;;;;;8.65;62.52;96195.97;5084948;28;19924;-64
2024/03/10 01:29:41;;;;;;;;;;;;;;;8.70;62.55;96193.03;5087975;28;19928;-61
2024/03/10 01:32:09;;;;;;;;;;;;;;;8.51;63.30;96190.13;5089523;28;20302;-63
2024/03/10 01:34:37;;;;;;;;;;;;;;;8.52;62.85;96189.00;5092035;28;19985;-64
2024/03/10 01:37:05;;;;;;;;;;;;;;;8.65;62.73;96177.03;5092498;28;19994;-60
2024/03/10 01:39:37;;;;;;;;;;;;;;;8.45;62.97;96175.25;5081745;28;19924;-62
2024/03/10 01:42:05;;;;;;;;;;;;;;;8.45;63.10;96172.53;5082008;28;19927;-61
2024/03/10 01:44:33;;;;;;;;;;;;;;;8.49;63.04;96168.03;5089772;28;19938;-61
2024/03/10 01:47:01;;;;;;;;;;;;;;;8.50;62.81;96164.97;5084644;28;19949;-61
2024/03/10 01:49:29;;;;;;;;;;;;;;;8.58;62.65;96160.59;5093004;28;19936;-63
2024/03/10 01:51:57;;;;;;;;;;;;;;;8.59;62.45;96154.03;5094398;28;19959;-63
2024/03/10 01:54:25;;;;;;;;;;;;;;;8.51;62.80;96163.06;5082117;28;19967;-60
2024/03/10 01:56:54;;;;;;;;;;;;;;;8.54;62.36;96163.19;5083915;28;19932;-62
2024/03/10 01:59:22;;;;;;;;;;;;;;;8.58;62.22;96152.47;5073306;28;19924;-63
2024/03/10 02:01:50;;;;;;;;;;;;;;;8.55;62.37;96155.84;5072214;28;19976;-61
2024/03/10 02:04:19;;;;;;;;;;;;;;;8.42;62.91;96155.06;5091016;28;20511;-61
2024/03/10 02:06:47;;;;;;;;;;;;;;;8.42;62.75;96148.88;5087282;28;19932;-60
2024/03/10 02:09:16;;;;;;;;;;;;;;;8.39;62.74;96151.13;5091106;28;19932;-60
2024/03/10 02:11:44;;;;;;;;;;;;;;;8.35;63.04;96146.69;5090111;28;20018;-65
2024/03/10 02:14:13;;;;;;;;;;;;;;;8.31;63.09;96154.72;5086465;28;19929;-63
2024/03/10 02:16:41;;;;;;;;;;;;;;;8.36;62.88;96157.22;5096002;28;19940;-61
2024/03/10 02:19:10;;;;;;;;;;;;;;;8.33;62.89;96157.88;5090586;28;19924;-64
2024/03/10 02:21:38;;;;;;;;;;;;;;;8.29;63.10;96164.28;5087455;28;19928;-63
2024/03/10 02:24:11;;;;;;;;;;;;;;;8.20;63.03;96156.28;5092909;28;19928;-61
2024/03/10 02:26:44;;;;;;;;;;;;;;;8.25;63.02;96150.63;5090054;28;19927;-61
2024/03/10 02:29:20;;;;;;;;;;;;;;;8.22;63.14;96142.44;5086729;28;20383;-61
2024/03/10 02:48:27;;;;;;;;;;;;;;;8.18;62.96;96117.19;5151271;27;19933;-62
2024/03/10 02:50:54;;;;;;;;;;;;;;;8.07;63.39;96119.56;5114519;27;19992;-60
2024/03/10 02:53:24;;;;;;;;;;;;;;;7.96;63.26;96127.31;5115001;27;19929;-62
2024/03/10 02:55:53;;;;;;;;;;;;;;;8.00;63.38;96116.63;5112968;27;19923;-60
2024/03/10 02:58:22;;;;;;;;;;;;;;;7.88;63.86;96115.50;5115465;27;20650;-63
2024/03/10 03:00:50;;;;;;;;;;;;;;;7.87;63.86;96110.41;5109799;27;19923;-61
2024/03/10 03:03:18;;;;;;;;;;;;;;;7.84;63.89;96105.69;5112365;27;20321;-61
2024/03/10 03:05:46;;;;;;;;;;;;;;;7.88;63.69;96098.47;5111319;27;19931;-60
2024/03/10 03:08:15;;;;;;;;;;;;;;;7.75;63.89;96100.38;5112986;27;19930;-60
2024/03/10 03:10:43;;;;;;;;;;;;;;;7.74;64.27;96106.91;5108368;27;19931;-64
2024/03/10 03:13:10;;;;;;;;;;;;;;;7.81;63.80;96104.44;5113908;27;19923;-60
2024/03/10 03:15:39;;;;;;;;;;;;;;;7.77;64.04;96098.13;5109591;27;19928;-64
2024/03/10 03:18:07;;;;;;;;;;;;;;;7.72;64.29;96106.44;5106403;27;19940;-62
2024/03/10 03:20:35;;;;;;;;;;;;;;;7.86;64.15;96108.84;5112869;27;19923;-61
2024/03/10 03:23:04;;;;;;;;;;;;;;;7.82;64.15;96095.19;5108627;27;19932;-62
2024/03/10 03:25:32;;;;;;;;;;;;;;;7.85;64.03;96107.28;5106773;27;19935;-60
2024/03/10 03:28:00;;;;;;;;;;;;;;;7.77;64.16;96111.63;5114367;27;19923;-60
2024/03/10 03:30:28;;;;;;;;;;;;;;;7.90;63.51;96112.44;5111100;27;19988;-60
2024/03/10 03:32:57;;;;;;;;;;;;;;;7.79;63.74;96112.09;5117722;27;19933;-61
2024/03/10 03:35:25;;;;;;;;;;;;;;;7.71;64.15;96104.88;5115091;27;19976;-62
2024/03/10 03:37:52;;;;;;;;;;;;;;;7.71;64.16;96102.19;5118579;27;19923;-61
2024/03/10 03:40:23;;;;;;;;;;;;;;;7.71;64.19;96094.06;5110294;27;19928;-60
2024/03/10 03:42:50;;;;;;;;;;;;;;;7.85;63.65;96093.75;5111480;27;20216;-60
2024/03/10 03:45:18;;;;;;;;;;;;;;;7.88;63.68;96098.47;5118509;27;19969;-64
2024/03/10 03:47:46;;;;;;;;;;;;;;;7.72;63.95;96097.56;5098904;27;20002;-60
2024/03/10 03:50:16;;;;;;;;;;;;;;;7.78;63.57;96083.50;5098148;28;19924;-64
2024/03/10 03:52:44;;;;;;;;;;;;;;;7.76;63.75;96087.66;5088102;28;20262;-66
2024/03/10 03:55:12;;;;;;;;;;;;;;;7.71;63.93;96091.38;5090655;28;19932;-65
2024/03/10 03:57:40;;;;;;;;;;;;;;;7.68;64.08;96083.94;5088299;28;20292;-60
2024/03/10 04:00:12;;;;;;;;;;;;;;;7.72;64.05;96081.34;5106964;27;20040;-61
2024/03/10 04:02:40;;;;;;;;;;;;;;;7.84;63.56;96075.97;5074934;28;20462;-60
2024/03/10 04:05:08;;;;;;;;;;;;;;;7.79;63.52;96078.88;5098780;28;19924;-60
2024/03/10 04:07:37;;;;;;;;;;;;;;;7.79;63.51;96074.25;5117126;27;19924;-67
2024/03/10 04:10:09;;;;;;;;;;;;;;;7.70;63.50;96064.69;5096802;28;20407;-61
2024/03/10 04:12:37;;;;;;;;;;;;;;;7.61;64.08;96064.78;5088234;28;19932;-60
2024/03/10 04:15:06;;;;;;;;;;;;;;;7.61;64.02;96067.47;5099682;28;19924;-65
2024/03/10 04:17:34;;;;;;;;;;;;;;;7.58;63.93;96066.25;5081646;28;19924;-61
2024/03/10 04:20:02;;;;;;;;;;;;;;;7.57;63.96;96066.59;5097738;28;19924;-63
2024/03/10 04:22:30;;;;;;;;;;;;;;;7.55;64.16;96063.44;5102821;28;19927;-61
2024/03/10 04:24:59;;;;;;;;;;;;;;;7.34;64.90;96068.91;5087896;28;19931;-61
2024/03/10 04:27:30;;;;;;;;;;;;;;;7.45;64.35;96061.16;5091464;28;19924;-61
2024/03/10 04:29:58;;;;;;;;;;;;;;;7.50;64.50;96060.94;5079038;28;19928;-62
2024/03/10 04:32:25;;;;;;;;;;;;;;;7.34;64.80;96058.09;5094445;28;19987;-66
2024/03/10 04:34:53;;;;;;;;;;;;;;;7.38;64.91;96055.53;5093521;28;19934;-62
2024/03/10 04:37:22;;;;;;;;;;;;;;;7.42;64.82;96064.56;5088334;28;20431;-62
2024/03/10 04:39:50;;;;;;;;;;;;;;;7.40;64.75;96062.16;5095385;28;19924;-62
2024/03/10 04:42:23;;;;;;;;;;;;;;;7.45;64.46;96061.16;5082835;28;19978;-63
2024/03/10 04:44:51;;;;;;;;;;;;;;;7.42;64.65;96053.75;5094277;28;20032;-62
2024/03/10 04:47:19;;;;;;;;;;;;;;;7.33;64.67;96046.50;5089949;28;19935;-63
2024/03/10 04:49:47;;;;;;;;;;;;;;;7.43;64.48;96044.50;5087370;28;19924;-60
2024/03/10 04:52:15;;;;;;;;;;;;;;;7.38;64.21;96044.72;5073803;28;19924;-63
2024/03/10 04:54:45;;;;;;;;;;;;;;;7.33;64.42;96038.41;5072372;28;19928;-60
2024/03/10 04:57:13;;;;;;;;;;;;;;;7.30;64.85;96033.69;5089299;28;19932;-60
2024/03/10 04:59:44;;;;;;;;;;;;;;;7.25;65.02;96020.41;5093752;28;19973;-64
2024/03/10 05:02:11;;;;;;;;;;;;;;;7.21;65.19;96018.72;5086418;28;20331;-62
2024/03/10 05:04:39;;;;;;;;;;;;;;;7.25;64.94;96020.41;5083014;28;19935;-64
2024/03/10 05:07:07;;;;;;;;;;;;;;;7.25;65.24;96014.22;5087067;28;20641;-61
2024/03/10 05:09:35;;;;;;;;;;;;;;;7.18;65.26;95998.53;5083906;28;19932;-60
2024/03/10 05:12:03;;;;;;;;;;;;;;;7.22;64.98;95995.97;5084322;28;19940;-62
2024/03/10 05:14:31;;;;;;;;;;;;;;;7.26;64.99;95992.28;5085464;28;20032;-65
2024/03/10 05:17:02;;;;;;;;;;;;;;;7.36;64.83;95985.63;5089942;28;19938;-63
2024/03/10 05:19:30;;;;;;;;;;;;;;;7.40;64.28;95981.13;5083116;28;20084;-62
2024/03/10 05:22:00;;;;;;;;;;;;;;;7.35;64.44;95979.44;5087614;28;20057;-60
2024/03/10 05:24:27;;;;;;;;;;;;;;;7.33;64.55;95989.78;5086511;28;19955;-61
2024/03/10 05:26:55;;;;;;;;;;;;;;;7.37;64.48;95989.13;5091590;28;20457;-60
2024/03/10 05:29:23;;;;;;;;;;;;;;;7.52;64.11;95985.75;5086824;28;19924;-60
2024/03/10 05:31:50;;;;;;;;;;;;;;;7.39;64.54;95992.25;5085777;28;20364;-60
2024/03/10 05:34:20;;;;;;;;;;;;;;;7.60;63.52;95988.31;5090179;28;19994;-63
2024/03/10 05:36:47;;;;;;;;;;;;;;;7.50;63.74;95988.00;5069845;28;19932;-65
2024/03/10 05:39:15;;;;;;;;;;;;;;;7.55;64.04;95999.34;5075541;28;19943;-61
2024/03/10 05:41:43;;;;;;;;;;;;;;;7.51;63.98;96003.06;5079371;28;20017;-62
2024/03/10 05:44:14;;;;;;;;;;;;;;;7.52;63.71;96010.06;5099844;28;20430;-61
2024/03/10 05:46:42;;;;;;;;;;;;;;;7.56;63.39;96009.06;5093987;28;19924;-64
2024/03/10 05:49:10;;;;;;;;;;;;;;;7.52;63.44;96010.06;5082726;28;19925;-61
2024/03/10 05:51:39;;;;;;;;;;;;;;;7.55;63.64;96020.19;5092091;28;20337;-61
2024/03/10 05:54:09;;;;;;;;;;;;;;;7.53;63.70;96020.53;5093519;28;19924;-65
2024/03/10 05:56:36;;;;;;;;;;;;;;;7.70;62.80;96019.53;5085867;28;19924;-62
2024/03/10 05:59:05;;;;;;;;;;;;;;;7.60;63.64;96017.25;5093755;28;19930;-59
2024/03/10 06:01:33;;;;;;;;;;;;;;;7.52;63.32;96005.44;5094352;28;20378;-63
2024/03/10 06:04:01;;;;;;;;;;;;;;;7.49;63.40;96002.63;5093379;28;20013;-63
2024/03/10 06:06:29;;;;;;;;;;;;;;;7.57;63.22;95999.03;5091453;28;19932;-60
2024/03/10 06:08:58;;;;;;;;;;;;;;;7.60;62.89;95995.66;5101039;28;19969;-60
2024/03/10 06:11:26;;;;;;;;;;;;;;;7.61;62.93;95998.00;5096287;28;19928;-61
2024/03/10 06:13:53;;;;;;;;;;;;;;;7.56;62.86;96000.97;5075335;28;19982;-63
2024/03/10 06:16:22;;;;;;;;;;;;;;;7.46;63.13;95997.91;5095622;28;19936;-62
2024/03/10 06:27:07;;;;;;;;;;;;;;;7.41;63.73;96003.53;5098956;28;20438;-60
2024/03/10 06:29:35;;;;;;;;;;;;;;;7.59;63.14;96004.88;5092748;28;19935;-60
2024/03/10 06:32:03;;;;;;;;;;;;;;;7.35;63.34;96009.16;5093592;28;19978;-60
2024/03/10 06:34:31;;;;;;;;;;;;;;;7.65;63.08;96000.81;5085023;28;19935;-60
2024/03/10 06:36:59;;;;;;;;;;;;;;;7.78;62.64;95993.50;5098436;28;19928;-60
2024/03/10 06:39:28;;;;;;;;;;;;;;;7.78;62.08;96001.63;5085514;28;19932;-61
2024/03/10 06:41:56;;;;;;;;;;;;;;;7.92;61.82;96009.38;5086179;28;20027;-60
2024/03/10 06:44:24;;;;;;;;;;;;;;;7.86;62.12;96003.41;5110350;28;19930;-60
2024/03/10 06:46:52;;;;;;;;;;;;;;;7.88;61.78;96012.75;5089697;28;20013;-60
2024/03/10 06:49:20;;;;;;;;;;;;;;;7.88;61.95;96011.94;5102931;27;19932;-60
2024/03/10 06:51:48;;;;;;;;;;;;;;;8.00;61.87;96008.47;5126612;27;20400;-61
2024/03/10 06:54:16;;;;;;;;;;;;;;;8.17;61.30;96019.00;5114662;27;19950;-59
2024/03/10 06:56:45;;;;;;;;;;;;;;;8.20;61.12;96023.72;5112979;27;20340;-61
2024/03/10 06:59:13;;;;;;;;;;;;;;;8.13;61.11;96018.91;5126135;27;20346;-60
2024/03/10 07:01:44;;;;;;;;;;;;;;;8.24;60.72;96030.03;5124693;27;19924;-60
2024/03/10 07:04:13;;;;;;;;;;;;;;;8.31;60.29;96041.09;5111971;27;20283;-60
2024/03/10 07:06:41;;;;;;;;;;;;;;;8.36;60.19;96043.59;5119094;27;19976;-60
2024/03/10 07:09:09;;;;;;;;;;;;;;;8.38;60.06;96035.13;5115567;27;19923;-59
2024/03/10 07:11:41;;;;;;;;;;;;;;;8.23;60.28;96038.50;5128102;27;19924;-60
2024/03/10 07:14:12;;;;;;;;;;;;;;;8.28;60.00;96041.75;5102189;27;19928;-60
2024/03/10 07:16:40;;;;;;;;;;;;;;;8.30;60.28;96031.38;5107389;27;19923;-64
2024/03/10 07:19:08;;;;;;;;;;;;;;;8.39;60.09;96034.75;5111012;27;19946;-59
2024/03/10 07:21:36;;;;;;;;;;;;;;;8.18;60.81;96026.00;5121878;27;19923;-60
2024/03/10 07:24:04;;;;;;;;;;;;;;;8.27;60.28;96028.56;5113530;27;20097;-60
2024/03/10 07:26:34;;;;;;;;;;;;;;;8.23;60.16;96016.84;5129716;27;19923;-60
2024/03/10 07:29:02;;;;;;;;;;;;;;;8.22;60.29;96035.00;5107170;27;19928;-60
2024/03/10 07:31:31;;;;;;;;;;;;;;;8.45;60.11;96034.53;5119295;27;19960;-59
2024/03/10 07:33:59;;;;;;;;;;;;;;;8.50;59.39;96034.28;5112428;27;19938;-59
2024/03/10 07:36:26;;;;;;;;;;;;;;;8.55;59.21;96021.28;5115544;27;20007;-59
2024/03/10 07:38:54;;;;;;;;;;;;;;;8.52;59.82;96015.78;5132518;27;19939;-59
2024/03/10 07:41:22;;;;;;;;;;;;;;;8.54;59.94;96010.81;5127621;27;19932;-59
2024/03/10 07:43:50;;;;;;;;;;;;;;;8.54;59.57;96010.81;5113441;27;19924;-59
2024/03/10 07:46:18;;;;;;;;;;;;;;;8.57;59.70;96000.06;5107664;27;20657;-59
2024/03/10 07:48:47;;;;;;;;;;;;;;;8.63;59.45;96006.06;5095239;28;19943;-62
2024/03/10 07:51:17;;;;;;;;;;;;;;;8.79;59.36;95997.94;5086558;28;19936;-60
2024/03/10 07:53:45;;;;;;;;;;;;;;;8.87;58.52;95997.81;5082895;28;19939;-59
2024/03/10 07:56:13;;;;;;;;;;;;;;;8.84;58.29;95998.50;5092972;28;19969;-60
2024/03/10 07:58:41;;;;;;;;;;;;;;;9.04;58.32;95985.84;5087908;28;20403;-59
2024/03/10 08:01:09;;;;;;;;;;;;;;;8.88;58.29;95987.75;5090862;28;19924;-59
2024/03/10 08:03:37;;;;;;;;;;;;;;;8.90;58.40;95993.63;5082952;28;20453;-59
2024/03/10 08:06:07;;;;;;;;;;;;;;;8.89;58.37;95983.91;5086063;28;19954;-59
2024/03/10 08:08:35;;;;;;;;;;;;;;;8.99;58.31;95988.03;5089989;28;19950;-59
2024/03/10 08:11:04;;;;;;;;;;;;;;;8.86;58.37;95984.63;5078180;28;19928;-59
2024/03/10 08:13:31;;;;;;;;;;;;;;;9.11;58.54;95993.41;5085980;28;19924;-60
2024/03/10 08:16:00;;;;;;;;;;;;;;;9.12;58.26;95987.63;5095934;28;20031;-58
2024/03/10 08:18:28;;;;;;;;;;;;;;;9.18;57.61;95980.03;5091758;28;19924;-59
2024/03/10 08:20:56;;;;;;;;;;;;;;;9.21;57.76;95979.31;5092414;28;19959;-59
2024/03/10 08:23:25;;;;;;;;;;;;;;;9.28;57.57;95974.09;5087681;28;19928;-60
2024/03/10 08:25:53;;;;;;;;;;;;;;;9.37;57.11;95973.91;5098866;28;19928;-59
2024/03/10 08:28:21;;;;;;;;;;;;;;;9.36;57.45;95983.94;5087642;28;19986;-59
2024/03/10 08:30:50;;;;;;;;;;;;;;;9.39;57.07;95977.84;5087088;28;20537;-60
2024/03/10 08:33:17;;;;;;;;;;;;;;;9.53;57.12;95976.59;5098717;28;19924;-60
2024/03/10 08:35:46;;;;;;;;;;;;;;;9.58;56.31;95982.53;5086406;28;20428;-59
2024/03/10 08:38:15;;;;;;;;;;;;;;;9.73;55.96;95982.88;5098160;28;19923;-58
2024/03/10 08:40:44;;;;;;;;;;;;;;;9.68;56.12;95976.56;5081305;28;19931;-59
2024/03/10 08:43:13;;;;;;;;;;;;;;;9.78;56.07;95977.97;5095917;28;19924;-59
2024/03/10 08:45:40;;;;;;;;;;;;;;;9.97;55.18;95972.59;5089104;28;19924;-62
2024/03/10 08:48:10;;;;;;;;;;;;;;;10.00;55.57;95981.16;5099206;28;19950;-62
2024/03/10 08:50:40;;;;;;;;;;;;;;;10.03;55.76;95975.03;5071926;28;19925;-58
2024/03/10 08:53:08;;;;;;;;;;;;;;;10.12;55.47;95973.69;5088571;28;19925;-59
2024/03/10 08:55:36;;;;;;;;;;;;;;;10.17;54.72;95964.47;5088221;28;19924;-60
2024/03/10 08:58:05;;;;;;;;;;;;;;;10.24;54.68;95961.94;5096429;22;20388;-76
2024/03/10 09:00:33;;;;;;;;;;;;;;;10.28;54.35;95943.81;5077138;28;20368;-77
2024/03/10 09:03:01;;;;;;;;;;;;;;;10.21;54.17;95949.84;5073325;28;19931;-76
2024/03/10 09:05:29;;;;;;;;;;;;;;;10.26;54.47;95959.66;5076992;28;19928;-75
2024/03/10 09:07:57;;;;;;;;;;;;;;;10.39;54.43;95949.47;5074645;28;19924;-77
2024/03/10 09:10:29;;;;;;;;;;;;;;;10.49;54.22;95941.53;5092453;28;20541;-77
2024/03/10 09:13:08;;;;;;;;;;;;;;;10.56;53.56;95937.38;5079707;28;20011;-76
2024/03/10 09:15:36;;;;;;;;;;;;;;;10.58;53.76;95933.13;5082762;28;19924;-77
2024/03/10 09:18:04;;;;;;;;;;;;;;;10.57;53.69;95931.56;5091580;28;20007;-82
2024/03/10 09:20:35;;;;;;;;;;;;;;;10.59;53.57;95936.63;5072728;28;19925;-78
2024/03/10 09:23:04;;;;;;;;;;;;;;;10.65;53.38;95929.75;5088901;28;19924;-77
2024/03/10 09:25:32;;;;;;;;;;;;;;;10.80;53.10;95925.38;5076557;28;19924;-91
2024/03/10 09:27:59;;;;;;;;;;;;;;;10.72;52.75;95919.84;5076844;28;19928;-83
2024/03/10 09:30:30;;;;;;;;;;;;;;;10.83;52.71;95916.53;5075825;28;19950;-83
2024/03/10 09:32:58;;;;;;;;;;;;;;;10.85;53.01;95906.84;5075415;28;19939;-83
2024/03/10 09:35:28;;;;;;;;;;;;;;;10.86;52.50;95919.28;5073636;28;19947;-82
2024/03/10 09:38:00;;;;;;;;;;;;;;;10.91;52.51;95916.28;5091439;28;19924;-80
2024/03/10 09:40:29;;;;;;;;;;;;;;;10.96;52.35;95918.69;5075992;28;19935;-89
2024/03/10 09:42:57;;;;;;;;;;;;;;;11.04;52.10;95924.25;5079378;28;19951;-87
2024/03/10 09:45:25;;;;;;;;;;;;;;;11.09;52.66;95916.59;5093861;28;20027;-83
2024/03/10 09:47:58;;;;;;;;;;;;;;;11.11;52.98;95917.00;5093418;28;19931;-85
2024/03/10 09:50:28;;;;;;;;;;;;;;;11.09;51.67;95926.69;5053589;28;20535;-83
2024/03/10 09:52:58;;;;;;;;;;;;;;;10.97;51.68;95917.56;5068388;28;19924;-89
2024/03/10 09:55:27;;;;;;;;;;;;;;;10.97;51.83;95920.28;5064133;28;19924;-90
2024/03/10 09:57:55;;;;;;;;;;;;;;;11.07;52.09;95907.22;5073540;28;19924;-88
2024/03/10 10:00:24;;;;;;;;;;;;;;;11.13;51.97;95909.28;5069690;28;19963;-88
2024/03/10 10:02:53;;;;;;;;;;;;;;;11.17;51.18;95882.16;5091567;28;19931;-90
2024/03/10 10:05:27;;;;;;;;;;;;;;;11.34;51.23;95881.63;5076006;28;19929;-90
2024/03/10 10:07:55;;;;;;;;;;;;;;;11.44;50.85;95891.09;5061945;28;20016;-90
2024/03/10 10:10:23;;;;;;;;;;;;;;;11.52;50.73;95893.56;5084491;28;19924;-91
2024/03/10 10:12:53;;;;;;;;;;;;;;;11.64;50.85;95886.34;5093034;28;19979;-90
2024/03/10 10:15:22;;;;;;;;;;;;;;;11.71;50.03;95873.63;5074063;28;20015;-86
2024/03/10 10:17:53;;;;;;;;;;;;;;;11.70;49.97;95880.22;5100648;28;19924;-85
2024/03/10 10:20:25;;;;;;;;;;;;;;;11.73;50.17;95882.22;5077321;28;19985;-86
2024/03/10 10:22:54;;;;;;;;;;;;;;;11.77;49.50;95869.47;5084610;28;19931;-78
2024/03/10 10:25:22;;;;;;;;;;;;;;;11.78;48.86;95865.56;5083651;28;19924;-78
2024/03/10 10:27:50;;;;;;;;;;;;;;;11.89;49.33;95852.13;5074014;28;19924;-80
2024/03/10 10:30:19;;;;;;;;;;;;;;;11.89;49.30;95841.25;5075612;28;19928;-82
2024/03/10 10:32:47;;;;;;;;;;;;;;;11.88;49.60;95858.75;5085699;28;19959;-82
2024/03/10 10:35:16;;;;;;;;;;;;;;;11.93;49.26;95855.69;5089071;28;19938;-88
2024/03/10 10:37:46;;;;;;;;;;;;;;;12.00;48.96;95850.34;5074306;28;20413;-90
2024/03/10 10:40:40;;;;;;;;;;;;;;;12.04;49.08;95851.16;5071880;28;19939;-86
2024/03/10 10:43:09;;;;;;;;;;;;;;;12.16;48.82;95852.06;5092346;28;19924;-88
2024/03/10 10:45:37;;;;;;;;;;;;;;;12.26;48.19;95854.91;5088249;28;20380;-90
2024/03/10 10:48:06;;;;;;;;;;;;;;;12.22;48.14;95850.59;5081621;28;19924;-75
2024/03/10 10:50:34;;;;;;;;;;;;;;;12.24;48.45;95848.25;5071922;28;19930;-75
2024/03/10 10:53:06;;;;;;;;;;;;;;;12.24;48.29;95848.25;5073143;28;19924;-75
2024/03/10 10:55:34;;;;;;;;;;;;;;;12.22;48.22;95845.91;5078958;28;19924;-81
2024/03/10 10:58:04;;;;;;;;;;;;;;;12.24;47.86;95845.53;5084751;28;19928;-82
2024/03/10 11:00:32;;;;;;;;;;;;;;;12.36;48.64;95841.78;5053484;28;19924;-88
2024/03/10 11:03:13;;;;;;;;;;;;;;;12.45;48.49;95847.72;5053943;28;19929;-84
2024/03/10 11:05:41;;;;;;;;;;;;;;;12.54;47.69;95848.19;5057086;28;19924;-85
2024/03/10 11:08:13;;;;;;;;;;;;;;;12.55;47.24;95853.25;5057566;28;19932;-86
2024/03/10 11:10:45;;;;;;;;;;;;;;;12.56;47.66;95854.03;5078457;28;19925;-85
2024/03/10 11:13:13;;;;;;;;;;;;;;;12.59;47.55;95864.22;5070477;28;19928;-86
2024/03/10 11:15:41;;;;;;;;;;;;;;;12.62;47.40;95851.75;5055430;28;19928;-84
2024/03/10 11:18:22;;;;;;;;;;;;;;;12.58;47.69;95854.47;5074045;28;19929;-90
2024/03/10 11:20:50;;;;;;;;;;;;;;;12.69;47.57;95849.13;5065239;28;19975;-87
2024/03/10 11:23:27;;;;;;;;;;;;;;;12.74;47.66;95848.78;5051094;28;19928;-77
2024/03/10 11:25:54;;;;;;;;;;;;;;;12.71;47.45;95833.19;5077529;28;19964;-84
2024/03/10 11:28:25;;;;;;;;;;;;;;;12.76;47.33;95835.56;5045308;28;20010;-83
2024/03/10 11:30:56;;;;;;;;;;;;;;;12.84;47.55;95834.47;5051737;28;19925;-82
2024/03/10 11:33:24;;;;;;;;;;;;;;;12.83;47.69;95827.44;5074702;28;19930;-85
2024/03/10 11:35:53;;;;;;;;;;;;;;;12.77;47.65;95820.78;5056714;28;19932;-82
2024/03/10 11:38:21;;;;;;;;;;;;;;;12.85;47.69;95819.69;5079417;28;19924;-81
2024/03/10 11:41:01;;;;;;;;;;;;;;;12.83;46.99;95811.09;5064890;28;20285;-80
2024/03/10 11:43:29;;;;;;;;;;;;;;;12.93;47.06;95818.56;5072460;28;20288;-81
2024/03/10 11:45:57;;;;;;;;;;;;;;;12.92;46.90;95817.00;5072608;28;19970;-81
2024/03/10 11:48:27;;;;;;;;;;;;;;;12.92;47.12;95808.84;5054202;28;20044;-82
2024/03/10 11:50:59;;;;;;;;;;;;;;;12.96;47.11;95822.50;5057456;28;19924;-80
2024/03/10 11:53:28;;;;;;;;;;;;;;;13.02;46.98;95829.16;5068396;28;19924;-79
2024/03/10 11:55:57;;;;;;;;;;;;;;;13.03;46.76;95825.28;5061767;28;19974;-79
2024/03/10 11:58:26;;;;;;;;;;;;;;;13.11;48.67;95819.50;5064295;28;19925;-86
2024/03/10 12:00:54;;;;;;;;;;;;;;;13.07;46.74;95820.63;5056904;28;19931;-81
2024/03/10 12:03:22;;;;;;;;;;;;;;;13.16;47.08;95823.06;5040954;28;19924;-80
2024/03/10 12:05:49;;;;;;;;;;;;;;;13.17;46.58;95810.97;5042917;28;20364;-81
2024/03/10 12:08:19;;;;;;;;;;;;;;;13.15;47.17;95807.81;5066075;28;19970;-82
2024/03/10 12:10:46;;;;;;;;;;;;;;;13.14;46.92;95806.28;5038899;28;20370;-81
2024/03/10 12:13:18;;;;;;;;;;;;;;;13.09;46.55;95793.78;5043159;28;19939;-81
2024/03/10 12:15:51;;;;;;;;;;;;;;;13.19;47.25;95798.50;5071302;28;19950;-87
2024/03/10 12:18:21;;;;;;;;;;;;;;;13.22;46.78;95802.47;5039165;28;19929;-85
2024/03/10 12:20:49;;;;;;;;;;;;;;;13.13;46.20;95799.25;5041164;28;19928;-86
2024/03/10 12:23:17;;;;;;;;;;;;;;;13.19;46.49;95800.47;5047698;28;19929;-85
2024/03/10 12:25:46;;;;;;;;;;;;;;;13.27;46.69;95799.41;5064301;28;20356;-84
2024/03/10 12:28:14;;;;;;;;;;;;;;;13.29;46.04;95794.34;5046975;28;19959;-84
2024/03/10 12:30:42;;;;;;;;;;;;;;;13.31;45.80;95792.00;5047120;28;19935;-84
2024/03/10 12:33:12;;;;;;;;;;;;;;;13.32;46.00;95785.41;5063906;28;20011;-84
2024/03/10 12:35:39;;;;;;;;;;;;;;;13.30;46.17;95782.25;5042495;28;19941;-84
2024/03/10 12:38:07;;;;;;;;;;;;;;;13.38;45.75;95781.16;5041901;28;20335;-86
2024/03/10 12:40:35;;;;;;;;;;;;;;;13.42;46.08;95784.66;5037609;28;20403;-84
2024/03/10 12:43:03;;;;;;;;;;;;;;;13.47;45.68;95788.97;5049941;28;19947;-86
2024/03/10 12:45:31;;;;;;;;;;;;;;;13.47;45.81;95787.03;5049908;28;20418;-84
2024/03/10 12:47:59;;;;;;;;;;;;;;;13.40;46.12;95789.72;5052559;28;19931;-83
2024/03/10 12:50:30;;;;;;;;;;;;;;;13.42;45.85;95787.38;5054125;28;19974;-86
2024/03/10 12:53:01;;;;;;;;;;;;;;;13.45;45.72;95773.00;5054495;28;19925;-88
2024/03/10 12:55:29;;;;;;;;;;;;;;;13.33;45.75;95781.50;5053938;28;19931;-86
2024/03/10 12:57:57;;;;;;;;;;;;;;;13.34;46.01;95780.34;5062624;28;19974;-88
2024/03/10 13:00:27;;;;;;;;;;;;;;;13.19;46.25;95787.59;5090277;28;20398;-87
2024/03/10 13:02:57;;;;;;;;;;;;;;;13.21;46.20;95789.94;5086448;28;19924;-87
2024/03/10 13:05:26;;;;;;;;;;;;;;;13.17;46.56;95805.53;5069647;28;19924;-86
2024/03/10 13:07:57;;;;;;;;;;;;;;;13.17;46.93;95800.06;5072150;28;20018;-87
2024/03/10 13:10:25;;;;;;;;;;;;;;;13.14;46.39;95801.59;5072932;28;19924;-87
2024/03/10 13:12:53;;;;;;;;;;;;;;;13.09;46.23;95807.41;5072951;28;19932;-88
2024/03/10 13:15:21;;;;;;;;;;;;;;;13.15;46.22;95797.69;5072880;28;19924;-89
2024/03/10 13:17:49;;;;;;;;;;;;;;;13.05;46.44;95799.22;5087991;28;20198;-87
2024/03/10 13:20:20;;;;;;;;;;;;;;;13.18;46.48;95801.63;5074430;28;19924;-87
2024/03/10 13:22:49;;;;;;;;;;;;;;;13.15;46.20;95799.66;5072489;28;19924;-87
2024/03/10 13:25:19;;;;;;;;;;;;;;;13.09;46.03;95786.38;5070782;28;19924;-88